createdAt,value
2023-03-13T00:00:58.285Z,97398.98
2023-03-13T00:03:26.451Z,97408.21
2023-03-13T00:05:58.340Z,97408.10
2023-03-13T00:08:28.860Z,97412.81
2023-03-13T00:10:56.830Z,97409.55
2023-03-13T00:13:24.900Z,97411.06
2023-03-13T00:15:59.620Z,97420.38
2023-03-13T00:18:27.620Z,97428.30
2023-03-13T00:21:02.443Z,97436.46
2023-03-13T00:23:30.834Z,97448.10
2023-03-13T00:25:59.808Z,97457.86
2023-03-13T00:28:29.018Z,97455.70
2023-03-13T00:31:03.239Z,97449.73
2023-03-13T00:33:35.108Z,97438.99
2023-03-13T00:36:05.007Z,97440.13
2023-03-13T00:38:33.881Z,97431.72
2023-03-13T00:41:07.610Z,97427.77
2023-03-13T00:43:36.012Z,97434.42
2023-03-13T00:46:04.487Z,97434.99
2023-03-13T00:48:33.476Z,97435.77
2023-03-13T00:51:02.265Z,97437.95
2023-03-13T00:53:30.348Z,97439.30
2023-03-13T00:56:02.832Z,97439.48
2023-03-13T00:58:32.746Z,97435.14
2023-03-13T01:01:11.363Z,97434.34
2023-03-13T01:03:40.685Z,97428.36
2023-03-13T01:06:11.202Z,97432.39
2023-03-13T01:08:39.485Z,97432.55
2023-03-13T01:11:12.360Z,97434.58
2023-03-13T01:13:40.547Z,97432.69
2023-03-13T01:16:09.916Z,97425.48
2023-03-13T01:18:38.754Z,97427.44
2023-03-13T01:21:07.026Z,97427.92
2023-03-13T01:23:35.003Z,97425.02
2023-03-13T01:26:04.510Z,97424.67
2023-03-13T01:28:32.990Z,97427.39
2023-03-13T01:31:01.658Z,97421.92
2023-03-13T01:33:31.008Z,97419.02
2023-03-13T01:36:02.687Z,97422.41
2023-03-13T01:38:31.234Z,97433.17
2023-03-13T01:40:59.122Z,97434.77
2023-03-13T01:43:28.628Z,97436.09
2023-03-13T01:46:01.556Z,97441.67
2023-03-13T01:48:34.290Z,97439.89
2023-03-13T01:51:03.488Z,97438.77
2023-03-13T01:53:33.712Z,97442.39
2023-03-13T01:56:05.169Z,97445.05
2023-03-13T01:58:33.366Z,97449.06
2023-03-13T02:01:02.451Z,97449.83
2023-03-13T02:03:30.930Z,97447.50
2023-03-13T02:06:01.373Z,97448.52
2023-03-13T02:08:32.802Z,97454.52
2023-03-13T02:11:07.839Z,97461.92
2023-03-13T02:13:35.824Z,97468.58
2023-03-13T02:16:05.050Z,97465.48
2023-03-13T02:18:33.102Z,97470.92
2023-03-13T02:21:21.357Z,97470.61
2023-03-13T02:23:53.703Z,97470.11
2023-03-13T02:26:22.094Z,97464.98
2023-03-13T02:28:50.471Z,97463.23
2023-03-13T02:31:19.490Z,97461.33
2023-03-13T02:33:47.547Z,97459.84
2023-03-13T02:36:18.296Z,97458.73
2023-03-13T02:38:51.799Z,97459.88
2023-03-13T02:41:20.686Z,97457.59
2023-03-13T02:43:48.729Z,97452.40
2023-03-13T02:46:19.184Z,97444.70
2023-03-13T02:48:51.261Z,97445.55
2023-03-13T02:51:28.860Z,97448.16
2023-03-13T02:54:00.119Z,97444.45
2023-03-13T02:56:30.738Z,97447.84
2023-03-13T02:58:59.014Z,97451.29
2023-03-13T03:01:27.402Z,97454.65
2023-03-13T03:03:55.555Z,97456.13
2023-03-13T03:06:23.513Z,97453.84
2023-03-13T03:08:51.940Z,97455.27
2023-03-13T03:11:20.121Z,97454.52
2023-03-13T03:13:51.465Z,97449.21
2023-03-13T03:16:20.887Z,97454.79
2023-03-13T03:18:49.057Z,97455.90
2023-03-13T03:21:17.158Z,97457.66
2023-03-13T03:23:45.401Z,97463.34
2023-03-13T03:26:13.249Z,97472.45
2023-03-13T03:28:41.357Z,97473.79
2023-03-13T03:31:12.987Z,97476.83
2023-03-13T03:33:42.007Z,97476.10
2023-03-13T03:36:16.247Z,97475.71
2023-03-13T03:38:46.443Z,97473.66
2023-03-13T03:41:16.777Z,97476.73
2023-03-13T03:43:45.976Z,97476.07
2023-03-13T03:46:15.529Z,97483.04
2023-03-13T03:48:43.678Z,97484.90
2023-03-13T03:51:12.762Z,97485.23
2023-03-13T03:53:42.992Z,97485.20
2023-03-13T03:56:10.960Z,97482.94
2023-03-13T03:58:43.342Z,97487.81
2023-03-13T04:01:18.992Z,97488.77
2023-03-13T04:03:49.045Z,97480.20
2023-03-13T04:06:17.353Z,97484.00
2023-03-13T04:08:45.872Z,97492.79
2023-03-13T04:11:16.968Z,97496.45
2023-03-13T04:13:50.117Z,97496.80
2023-03-13T04:16:18.428Z,97494.90
2023-03-13T04:18:47.765Z,97494.20
2023-03-13T04:21:17.204Z,97489.02
2023-03-13T04:23:59.674Z,97482.12
2023-03-13T04:26:28.417Z,97478.35
2023-03-13T04:28:58.429Z,97477.71
2023-03-13T04:31:55.895Z,97484.36
2023-03-13T04:34:42.375Z,97480.77
2023-03-13T04:37:42.895Z,97473.42
2023-03-13T04:40:23.234Z,97477.32
2023-03-13T04:43:20.486Z,97480.80
2023-03-13T04:45:58.436Z,97478.21
2023-03-13T04:48:42.531Z,97475.98
2023-03-13T04:51:25.466Z,97482.92
2023-03-13T04:54:14.905Z,97486.23
2023-03-13T04:57:12.451Z,97482.78
2023-03-13T05:00:11.707Z,97487.46
2023-03-13T05:02:54.759Z,97496.59
2023-03-13T05:05:42.965Z,97501.63
2023-03-13T05:08:33.586Z,97506.55
2023-03-13T05:11:18.346Z,97512.15
2023-03-13T05:14:05.034Z,97525.00
2023-03-13T05:16:50.302Z,97526.83
2023-03-13T05:19:36.920Z,97527.20
2023-03-13T05:22:23.195Z,97531.04
2023-03-13T05:25:11.128Z,97529.20
2023-03-13T05:27:57.932Z,97527.67
2023-03-13T05:30:52.832Z,97529.30
2023-03-13T05:33:53.304Z,97536.23
2023-03-13T05:36:40.336Z,97520.10
2023-03-13T05:39:37.270Z,97514.80
2023-03-13T05:42:37.588Z,97513.44
2023-03-13T05:45:31.668Z,97525.56
2023-03-13T05:48:18.153Z,97529.02
2023-03-13T05:51:06.707Z,97530.41
2023-03-13T05:53:57.495Z,97530.46
2023-03-13T05:56:50.554Z,97535.25
2023-03-13T05:59:47.376Z,97533.39
2023-03-13T06:02:45.014Z,97542.20
2023-03-13T06:05:17.496Z,97547.77
2023-03-13T06:07:46.487Z,97545.69
2023-03-13T06:10:15.694Z,97540.02
2023-03-13T06:12:43.650Z,97541.52
2023-03-13T06:15:13.581Z,97548.83
2023-03-13T06:18:00.730Z,97544.36
2023-03-13T06:20:28.738Z,97540.55
2023-03-13T06:22:56.939Z,97539.63
2023-03-13T06:25:25.651Z,97549.80
2023-03-13T06:27:53.806Z,97558.27
2023-03-13T06:30:21.631Z,97549.16
2023-03-13T06:32:50.901Z,97533.92
2023-03-13T06:35:18.960Z,97541.17
2023-03-13T06:37:47.339Z,97549.46
2023-03-13T06:40:15.313Z,97544.62
2023-03-13T06:42:43.396Z,97544.57
2023-03-13T06:45:11.672Z,97549.58
2023-03-13T06:47:39.660Z,97547.96
2023-03-13T06:50:08.047Z,97546.68
2023-03-13T06:52:43.868Z,97551.20
2023-03-13T06:55:13.188Z,97551.27
2023-03-13T06:57:41.483Z,97546.41
2023-03-13T07:00:11.480Z,97531.12
2023-03-13T07:02:39.573Z,97525.38
2023-03-13T07:05:08.359Z,97527.66
2023-03-13T07:07:36.235Z,97532.68
2023-03-13T07:10:05.235Z,97520.11
2023-03-13T07:12:34.428Z,97521.70
2023-03-13T07:15:02.323Z,97514.06
2023-03-13T07:17:30.356Z,97515.98
2023-03-13T07:19:58.488Z,97527.56
2023-03-13T07:22:26.433Z,97528.45
2023-03-13T07:24:54.789Z,97532.05
2023-03-13T07:27:23.366Z,97530.71
2023-03-13T07:29:52.217Z,97525.25
2023-03-13T07:32:20.473Z,97525.93
2023-03-13T07:34:48.553Z,97527.13
2023-03-13T07:37:17.598Z,97529.48
2023-03-13T07:39:45.630Z,97529.31
2023-03-13T07:42:13.914Z,97520.19
2023-03-13T07:44:42.696Z,97525.95
2023-03-13T07:47:10.693Z,97532.94
2023-03-13T07:49:42.332Z,97533.96
2023-03-13T07:52:10.472Z,97537.71
2023-03-13T07:54:38.407Z,97529.02
2023-03-13T07:57:06.881Z,97529.57
2023-03-13T07:59:34.956Z,97536.07
2023-03-13T08:02:03.076Z,97532.98
2023-03-13T08:04:31.098Z,97526.66
2023-03-13T08:07:00.104Z,97521.88
2023-03-13T08:09:27.948Z,97522.52
2023-03-13T08:11:56.047Z,97522.02
2023-03-13T08:14:24.116Z,97525.11
2023-03-13T08:16:52.248Z,97527.14
2023-03-13T08:19:20.586Z,97515.84
2023-03-13T08:21:48.388Z,97504.71
2023-03-13T08:24:16.230Z,97513.24
2023-03-13T08:26:44.376Z,97516.51
2023-03-13T08:29:14.217Z,97519.60
2023-03-13T08:31:47.711Z,97519.05
2023-03-13T08:34:16.412Z,97522.63
2023-03-13T08:36:44.678Z,97514.91
2023-03-13T08:39:19.753Z,97510.10
2023-03-13T08:41:47.705Z,97508.66
2023-03-13T08:44:17.518Z,97506.08
2023-03-13T08:46:45.568Z,97500.93
2023-03-13T08:49:13.644Z,97505.85
2023-03-13T08:51:42.458Z,97505.27
2023-03-13T08:54:10.534Z,97504.89
2023-03-13T08:56:39.124Z,97505.02
2023-03-13T08:59:07.356Z,97503.11
2023-03-13T09:01:35.927Z,97502.16
2023-03-13T09:04:04.907Z,97503.97
2023-03-13T09:06:34.087Z,97506.63
2023-03-13T09:09:02.274Z,97498.60
2023-03-13T09:11:30.357Z,97499.56
2023-03-13T09:14:01.456Z,97502.71
2023-03-13T09:16:30.400Z,97502.73
2023-03-13T09:18:58.687Z,97505.53
2023-03-13T09:21:28.385Z,97502.48
2023-03-13T09:23:57.280Z,97499.60
2023-03-13T09:26:25.968Z,97503.21
2023-03-13T09:28:54.060Z,97498.98
2023-03-13T09:31:23.606Z,97493.71
2023-03-13T09:33:52.173Z,97499.06
2023-03-13T09:36:22.404Z,97494.50
2023-03-13T09:38:51.953Z,97494.53
2023-03-13T09:41:22.602Z,97492.56
2023-03-13T09:43:53.729Z,97489.54
2023-03-13T09:46:38.399Z,97481.73
2023-03-13T09:49:13.467Z,97480.54
2023-03-13T09:51:44.198Z,97476.65
2023-03-13T09:54:17.985Z,97470.36
2023-03-13T09:56:50.881Z,97463.60
2023-03-13T09:59:22.017Z,97463.12
2023-03-13T10:01:50.950Z,97464.21
2023-03-13T10:04:19.074Z,97458.40
2023-03-13T10:06:49.007Z,97457.91
2023-03-13T10:09:22.239Z,97455.17
2023-03-13T10:12:00.406Z,97454.52
2023-03-13T10:14:39.421Z,97447.98
2023-03-13T10:17:20.204Z,97444.54
2023-03-13T10:19:52.881Z,97439.20
2023-03-13T10:22:23.843Z,97432.36
2023-03-13T10:24:51.795Z,97428.77
2023-03-13T10:27:19.706Z,97424.36
2023-03-13T10:29:47.749Z,97420.95
2023-03-13T10:32:16.825Z,97415.49
2023-03-13T10:34:44.925Z,97407.65
2023-03-13T10:37:16.691Z,97406.67
2023-03-13T10:39:44.773Z,97401.56
2023-03-13T10:42:24.402Z,97400.08
2023-03-13T10:44:56.772Z,97396.29
2023-03-13T10:47:24.857Z,97388.08
2023-03-13T10:49:56.006Z,97384.70
2023-03-13T10:52:30.218Z,97377.92
2023-03-13T10:55:02.480Z,97374.15
2023-03-13T10:57:32.604Z,97369.55
2023-03-13T11:00:03.109Z,97364.08
2023-03-13T11:02:32.115Z,97361.19
2023-03-13T11:05:00.321Z,97356.58
2023-03-13T11:07:38.363Z,97355.02
2023-03-13T11:10:15.744Z,97349.75
2023-03-13T11:12:48.325Z,97343.54
2023-03-13T11:15:17.370Z,97339.98
2023-03-13T11:17:47.726Z,97337.29
2023-03-13T11:20:27.376Z,97335.46
2023-03-13T11:23:04.440Z,97327.74
2023-03-13T11:25:43.469Z,97326.41
2023-03-13T11:28:11.347Z,97321.48
2023-03-13T11:30:51.695Z,97318.99
2023-03-13T11:33:30.413Z,97316.34
2023-03-13T11:36:01.550Z,97312.94
2023-03-13T11:38:33.932Z,97313.88
2023-03-13T11:41:10.910Z,97311.17
2023-03-13T11:44:02.522Z,97307.47
2023-03-13T11:46:49.309Z,97307.60
2023-03-13T11:49:23.322Z,97308.56
2023-03-13T11:52:01.859Z,97307.11
2023-03-13T11:54:48.291Z,97305.81
2023-03-13T11:57:29.788Z,97299.64
2023-03-13T12:00:16.580Z,97295.05
2023-03-13T12:02:44.815Z,97295.38
2023-03-13T12:05:15.460Z,97294.25
2023-03-13T12:07:48.838Z,97293.80
2023-03-13T12:10:23.011Z,97299.40
2023-03-13T12:13:13.033Z,97294.64
2023-03-13T12:15:43.579Z,97290.66
2023-03-13T12:18:20.776Z,97292.66
2023-03-13T12:21:03.884Z,97286.15
2023-03-13T12:23:52.281Z,97288.63
2023-03-13T12:26:21.960Z,97287.63
2023-03-13T12:29:08.942Z,97281.95
2023-03-13T12:31:40.910Z,97278.98
2023-03-13T12:34:14.981Z,97275.11
2023-03-13T12:37:02.339Z,97268.56
2023-03-13T12:39:35.322Z,97267.92
2023-03-13T12:42:07.908Z,97267.64
2023-03-13T12:44:36.297Z,97271.58
2023-03-13T12:47:08.770Z,97274.71
2023-03-13T12:49:36.635Z,97270.08
2023-03-13T12:52:19.868Z,97268.38
2023-03-13T12:54:58.072Z,97263.20
2023-03-13T12:57:26.095Z,97266.67
2023-03-13T12:59:55.663Z,97260.63
2023-03-13T13:02:24.867Z,97261.92
2023-03-13T13:04:54.686Z,97259.79
2023-03-13T13:07:35.760Z,97258.41
2023-03-13T13:10:09.689Z,97253.70
2023-03-13T13:12:39.153Z,97249.17
2023-03-13T13:15:19.347Z,97243.48
2023-03-13T13:17:50.361Z,97237.67
2023-03-13T13:20:30.832Z,97240.54
2023-03-13T13:23:28.573Z,97241.82
2023-03-13T13:26:16.610Z,97235.61
2023-03-13T13:28:44.478Z,97233.98
2023-03-13T13:31:31.285Z,97226.61
2023-03-13T13:33:59.453Z,97225.05
2023-03-13T13:36:28.998Z,97230.86
2023-03-13T13:38:57.281Z,97224.43
2023-03-13T13:41:28.433Z,97224.36
2023-03-13T13:44:25.829Z,97221.98
2023-03-13T13:46:54.753Z,97220.77
2023-03-13T13:49:26.494Z,97220.70
2023-03-13T13:52:04.083Z,97214.30
2023-03-13T13:54:33.835Z,97211.23
2023-03-13T13:57:08.119Z,97218.23
2023-03-13T13:59:40.946Z,97215.30
2023-03-13T14:02:10.380Z,97212.13
2023-03-13T14:04:57.549Z,97204.83
2023-03-13T14:07:29.490Z,97199.91
2023-03-13T14:09:57.362Z,97195.46
2023-03-13T14:12:30.346Z,97198.08
2023-03-13T14:15:18.283Z,97193.63
2023-03-13T14:17:50.553Z,97190.91
2023-03-13T14:20:27.411Z,97189.34
2023-03-13T14:22:57.172Z,97181.81
2023-03-13T14:25:27.168Z,97175.84
2023-03-13T14:27:55.970Z,97172.42
2023-03-13T14:30:24.447Z,97173.53
2023-03-13T14:32:52.778Z,97172.07
2023-03-13T14:35:22.492Z,97164.45
2023-03-13T14:37:52.174Z,97156.36
2023-03-13T14:40:21.871Z,97151.61
2023-03-13T14:42:56.958Z,97148.00
2023-03-13T14:45:30.395Z,97148.61
2023-03-13T14:48:20.990Z,97141.52
2023-03-13T14:50:50.637Z,97140.14
2023-03-13T14:53:20.130Z,97135.89
2023-03-13T14:55:49.119Z,97133.07
2023-03-13T14:58:19.945Z,97133.64
2023-03-13T15:00:48.785Z,97136.70
2023-03-13T15:03:21.641Z,97143.58
2023-03-13T15:05:51.445Z,97144.95
2023-03-13T15:08:21.061Z,97145.02
2023-03-13T15:10:49.649Z,97144.11
2023-03-13T15:13:32.746Z,97141.09
2023-03-13T15:16:01.485Z,97138.33
2023-03-13T15:18:30.605Z,97135.02
2023-03-13T15:21:10.830Z,97135.77
2023-03-13T15:23:39.695Z,97138.75
2023-03-13T15:26:07.578Z,97139.02
2023-03-13T15:28:35.609Z,97140.67
2023-03-13T15:31:03.639Z,97140.25
2023-03-13T15:33:31.906Z,97141.64
2023-03-13T15:36:00.045Z,97139.34
2023-03-13T15:38:28.014Z,97140.54
2023-03-13T15:40:56.148Z,97136.80
2023-03-13T15:43:24.120Z,97132.20
2023-03-13T15:45:52.208Z,97130.98
2023-03-13T15:48:20.177Z,97127.88
2023-03-13T15:51:01.870Z,97119.70
2023-03-13T15:53:31.599Z,97116.82
2023-03-13T15:56:00.477Z,97118.55
2023-03-13T15:58:29.874Z,97117.91
2023-03-13T16:00:58.298Z,97121.36
2023-03-13T16:03:28.942Z,97121.65
2023-03-13T16:05:57.586Z,97120.38
2023-03-13T16:08:35.363Z,97124.09
2023-03-13T16:11:05.605Z,97126.43
2023-03-13T16:13:33.601Z,97123.20
2023-03-13T16:16:01.438Z,97124.30
2023-03-13T16:18:29.734Z,97131.39
2023-03-13T16:20:57.705Z,97137.52
2023-03-13T16:23:25.757Z,97143.70
2023-03-13T16:25:53.856Z,97141.38
2023-03-13T16:28:21.758Z,97140.51
2023-03-13T16:30:49.741Z,97139.59
2023-03-13T16:33:17.986Z,97141.81
2023-03-13T16:35:46.010Z,97142.21
2023-03-13T16:38:13.985Z,97142.29
2023-03-13T16:40:41.774Z,97140.39
2023-03-13T16:43:11.928Z,97144.14
2023-03-13T16:45:39.902Z,97143.92
2023-03-13T16:48:14.334Z,97143.80
2023-03-13T16:50:45.470Z,97139.36
2023-03-13T16:53:13.342Z,97140.34
2023-03-13T16:55:41.432Z,97139.47
2023-03-13T16:58:12.578Z,97142.11
2023-03-13T17:00:40.622Z,97142.98
2023-03-13T17:03:09.180Z,97141.98
2023-03-13T17:05:37.611Z,97143.92
2023-03-13T17:08:05.994Z,97148.70
2023-03-13T17:10:34.285Z,97150.20
2023-03-13T17:13:02.792Z,97149.67
2023-03-13T17:15:30.943Z,97152.10
2023-03-13T17:17:59.119Z,97154.20
2023-03-13T17:20:28.825Z,97152.42
2023-03-13T17:22:56.803Z,97153.69
2023-03-13T17:25:25.082Z,97152.24
2023-03-13T17:27:53.597Z,97149.02
2023-03-13T17:30:24.224Z,97145.37
2023-03-13T17:32:52.567Z,97141.09
2023-03-13T17:35:20.996Z,97145.57
2023-03-13T17:37:49.151Z,97147.80
2023-03-13T17:40:19.081Z,97154.86
2023-03-13T17:42:47.047Z,97145.09
2023-03-13T17:45:15.728Z,97141.06
2023-03-13T17:47:44.072Z,97135.31
2023-03-13T17:50:14.820Z,97137.58
2023-03-13T17:52:42.673Z,97134.61
2023-03-13T17:55:11.386Z,97131.25
2023-03-13T17:57:39.860Z,97136.05
2023-03-13T18:00:22.513Z,97133.30
2023-03-13T18:02:50.737Z,97130.38
2023-03-13T18:05:18.973Z,97123.22
2023-03-13T18:07:47.442Z,97122.82
2023-03-13T18:10:16.659Z,97120.27
2023-03-13T18:12:44.633Z,97124.44
2023-03-13T18:15:12.922Z,97121.19
2023-03-13T18:17:41.095Z,97120.66
2023-03-13T18:20:14.494Z,97122.64
2023-03-13T18:22:42.569Z,97120.48
2023-03-13T18:25:11.053Z,97124.17
2023-03-13T18:27:41.263Z,97121.15
2023-03-13T18:30:35.957Z,97125.63
2023-03-13T18:33:04.037Z,97125.43
2023-03-13T18:35:32.244Z,97129.23
2023-03-13T18:38:00.188Z,97124.16
2023-03-13T18:40:28.871Z,97118.80
2023-03-13T18:42:56.968Z,97116.92
2023-03-13T18:45:25.659Z,97116.11
2023-03-13T18:47:54.033Z,97118.63
2023-03-13T18:50:27.342Z,97117.80
2023-03-13T18:52:56.376Z,97120.83
2023-03-13T18:55:27.791Z,97121.47
2023-03-13T18:57:56.386Z,97119.73
2023-03-13T19:00:25.897Z,97120.63
2023-03-13T19:02:54.372Z,97120.32
2023-03-13T19:05:23.051Z,97123.04
2023-03-13T19:07:51.025Z,97124.36
2023-03-13T19:10:20.723Z,97128.63
2023-03-13T19:12:48.802Z,97127.63
2023-03-13T19:15:16.892Z,97130.27
2023-03-13T19:17:44.872Z,97133.80
2023-03-13T19:20:14.623Z,97128.06
2023-03-13T19:22:42.660Z,97125.11
2023-03-13T19:25:11.870Z,97114.71
2023-03-13T19:27:40.806Z,97116.50
2023-03-13T19:30:19.509Z,97108.69
2023-03-13T19:32:47.636Z,97107.08
2023-03-13T19:35:18.976Z,97110.62
2023-03-13T19:37:47.703Z,97112.62
2023-03-13T19:40:20.289Z,97112.99
2023-03-13T19:42:48.200Z,97111.77
2023-03-13T19:45:20.627Z,97111.84
2023-03-13T19:47:48.607Z,97115.69
2023-03-13T19:50:19.445Z,97118.41
2023-03-13T19:52:47.516Z,97122.50
2023-03-13T19:55:16.095Z,97123.84
2023-03-13T19:57:44.182Z,97123.25
2023-03-13T20:00:18.500Z,97124.60
2023-03-13T20:02:46.387Z,97124.83
2023-03-13T20:05:14.651Z,97121.80
2023-03-13T20:07:42.617Z,97117.73
2023-03-13T20:10:10.897Z,97120.27
2023-03-13T20:12:39.525Z,97120.15
2023-03-13T20:15:07.981Z,97118.29
2023-03-13T20:17:35.927Z,97117.30
2023-03-13T20:20:07.956Z,97117.42
2023-03-13T20:22:35.997Z,97113.31
2023-03-13T20:25:04.170Z,97111.52
2023-03-13T20:27:31.957Z,97114.80
2023-03-13T20:30:00.862Z,97117.35
2023-03-13T20:32:29.046Z,97117.13
2023-03-13T20:34:57.093Z,97114.30
2023-03-13T20:37:25.051Z,97107.83
2023-03-13T20:39:52.949Z,97108.32
2023-03-13T20:42:22.662Z,97105.55
2023-03-13T20:44:50.598Z,97105.34
2023-03-13T20:47:18.497Z,97104.09
2023-03-13T20:49:46.450Z,97097.27
2023-03-13T20:52:14.325Z,97092.54
2023-03-13T20:54:42.622Z,97094.17
2023-03-13T20:57:10.501Z,97093.15
2023-03-13T20:59:38.777Z,97098.33
2023-03-13T21:02:06.715Z,97100.02
2023-03-13T21:04:34.748Z,97090.25
2023-03-13T21:07:04.758Z,97089.49
2023-03-13T21:09:34.355Z,97091.93
2023-03-13T21:12:02.426Z,97096.91
2023-03-13T21:14:30.519Z,97089.88
2023-03-13T21:16:58.579Z,97082.44
2023-03-13T21:19:26.561Z,97075.88
2023-03-13T21:21:54.732Z,97070.35
2023-03-13T21:24:22.606Z,97069.05
2023-03-13T21:26:50.621Z,97069.81
2023-03-13T21:29:18.669Z,97073.96
2023-03-13T21:31:46.643Z,97067.56
2023-03-13T21:34:14.712Z,97063.09
2023-03-13T21:36:42.693Z,97062.44
2023-03-13T21:39:12.291Z,97061.39
2023-03-13T21:41:40.372Z,97055.61
2023-03-13T21:44:08.248Z,97050.86
2023-03-13T21:46:36.367Z,97043.39
2023-03-13T21:49:04.494Z,97039.57
2023-03-13T21:51:32.580Z,97036.68
2023-03-13T21:54:00.504Z,97035.88
2023-03-13T21:56:28.528Z,97030.98
2023-03-13T21:58:56.500Z,97029.20
2023-03-13T22:01:24.380Z,97026.98
2023-03-13T22:03:53.174Z,97019.97
2023-03-13T22:06:22.878Z,97012.50
2023-03-13T22:08:51.472Z,97007.34
2023-03-13T22:11:20.149Z,97008.64
2023-03-13T22:13:49.432Z,97009.95
2023-03-13T22:16:17.536Z,97005.05
2023-03-13T22:18:45.504Z,97003.92
2023-03-13T22:21:15.107Z,96996.33
2023-03-13T22:23:43.413Z,96989.96
2023-03-13T22:26:13.217Z,96988.73
2023-03-13T22:28:41.382Z,96985.70
2023-03-13T22:31:11.511Z,96980.80
2023-03-13T22:33:39.401Z,96975.77
2023-03-13T22:36:08.107Z,96973.85
2023-03-13T22:38:39.146Z,96978.60
2023-03-13T22:41:09.144Z,96969.20
2023-03-13T22:43:37.239Z,96971.17
2023-03-13T22:46:05.593Z,96974.52
2023-03-13T22:48:33.580Z,96970.94
2023-03-13T22:51:03.089Z,96964.37
2023-03-13T22:53:31.878Z,96966.66
2023-03-13T22:56:00.258Z,96971.70
2023-03-13T22:58:28.476Z,96969.67
2023-03-13T23:00:57.036Z,96959.39
2023-03-13T23:03:25.108Z,96957.48
2023-03-13T23:05:53.124Z,96952.14
2023-03-13T23:08:21.362Z,96948.80
2023-03-13T23:10:49.329Z,96943.05
2023-03-13T23:13:17.616Z,96948.80
2023-03-13T23:15:55.641Z,96945.83
2023-03-13T23:18:25.132Z,96944.63
2023-03-13T23:20:53.922Z,96948.77
2023-03-13T23:23:21.788Z,96948.67
2023-03-13T23:25:50.175Z,96947.87
2023-03-13T23:28:18.046Z,96947.55
2023-03-13T23:30:46.223Z,96944.28
2023-03-13T23:33:14.309Z,96935.75
2023-03-13T23:35:44.016Z,96930.67
2023-03-13T23:38:12.306Z,96926.40
2023-03-13T23:40:40.481Z,96928.02
2023-03-13T23:43:08.351Z,96927.75
2023-03-13T23:45:36.682Z,96921.99
2023-03-13T23:48:05.095Z,96917.28
2023-03-13T23:50:33.298Z,96920.59
2023-03-13T23:53:01.269Z,96920.46
2023-03-13T23:55:29.447Z,96913.14
2023-03-13T23:57:57.424Z,96908.97
